• Join FlightAware (Why Join?)
  • Login
  • US Flag 
06:17AM EDT


 

Airport Tracker/Info


-or-


 

Live Flight TrackerFlight Track Log ✈ AAH28 ✈ 03-May-2013 ✈ PHNL - PHOG / OGG

Flight Track Log - Related Links

Times and Time Zones

All times are in EDT time to prevent confusion due to time zone crossing. See the AAH28 flight status page for this flight to view local times or setup timezone preferences in your user account.

Time Position Orientation Groundspeed Altitude Reporting Facility
EDT Latitude Longitude Course Direction KTS MPH feet Rate Location/Type
03:02AM 21.3167 -157.9000 148° Southeast 160 184 1,100  Level Honolulu Center
03:03AM 21.2667 -157.8667 148° Southeast 270 311 2,600 2,520 Climbing Honolulu Center
03:04AM 21.2000 -157.8167 145° Southeast 290 334 6,200 3,540 Climbing Honolulu Center
03:05AM 21.1667 -157.7333 113° Southeast 300 345 9,700 2,940 Climbing Honolulu Center
03:06AM 21.1333 -157.6500 113° Southeast 320 368 12,100 2,460 Climbing Honolulu Center
03:07AM 21.1000 -157.5500 110° East 350 403 14,700 1,440 Climbing Honolulu Center
03:08AM 21.0500 -157.4667 123° Southeast 360 414 15,000 120 Climbing Honolulu Center
03:09AM 21.0000 -157.3667 118° Southeast 370 426 15,000  Level Honolulu Center
03:10AM 20.9500 -157.2667 118° Southeast 370 426 15,000 -600 Level Honolulu Center
03:11AM 20.9167 -157.1667 110° East 360 414 13,800 -1,320 Descending Honolulu Center
03:12AM 20.8667 -157.0667 118° Southeast 350 403 12,400 -1,560 Descending Honolulu Center
03:13AM 20.8333 -156.9833 113° Southeast 330 380 10,700 -1,380 Descending Honolulu Center
03:14AM 20.7833 -156.9000 123° Southeast 300 345 9,700 -1,440 Descending Honolulu Center
03:15AM 20.7500 -156.8333 118° Southeast 290 334 7,900 -1,680 Descending Honolulu Center
03:16AM 20.7167 -156.7500 113° Southeast 280 322 6,400 -1,500 Descending Honolulu Center
03:17AM 20.6833 -156.6667 113° Southeast 280 322 4,900 -1,440 Descending Honolulu Center
03:18AM 20.7000 -156.6000 75° East 260 299 3,500 -1,020 Descending Honolulu Center
03:19AM 20.7333 -156.5333 62° Northeast 240 276 2,900 -660 Descending Honolulu Center
03:20AM 20.7833 -156.5000 32° Northeast 200 230 2,200 -780 Descending Honolulu Center
03:21AM 20.8167 -156.4667 43° Northeast 180 207 1,400 -780 Descending Honolulu Center
03:22AM 20.8500 -156.4500 25° Northeast 140 161 700 -720 Descending Honolulu Center